Time;durP1;ratioP1;P1;durP2;ratioP2;P2;SDS_P1;SDS_P2;PMS_P1;PMS_P2;Temp;Humidity;BMP_temperature;BMP_pressure;BME280_temperature;BME280_humidity;BME280_pressure;Samples;Min_cycle;Max_cycle;Signal;HPM_P1;HPM_P2
2022/05/14 00:01:14;;;;;;;;;;;;;;;;;;5075995;28;28410;-80
2022/05/14 00:03:39;;;;;;;;;;;;;;;;;;5075627;28;28249;-80
2022/05/14 00:06:04;;;;;;;;;;;;;;;;;;5075979;28;28316;-80
2022/05/14 00:08:30;;;;;;;;;;;;;;;;;;5075949;28;28272;-80
2022/05/14 00:13:39;;;;;;;;;;;;;;;;;;5076073;28;28350;-80
2022/05/14 00:16:04;;;;;;;;;;;;;;;;;;5075824;28;28295;-80
2022/05/14 00:18:29;;;;;;;;;;;;;;;;;;5076061;28;28261;-80
2022/05/14 00:20:54;;;;;;;;;;;;;;;;;;5075759;28;29318;-80
2022/05/14 00:23:19;;;;;;;;;;;;;;;;;;5075628;28;28359;-80
2022/05/14 00:25:44;;;;;;;;;;;;;;;;;;5075836;28;28508;-80
2022/05/14 00:28:10;;;;;;;;;;;;;;;;;;5075758;28;28296;-80
2022/05/14 00:30:36;;;;;;;;;;;;;;;;;;5074871;28;28391;-80
2022/05/14 00:33:01;;;;;;;;;;;;;;;;;;5075465;28;28324;-80
2022/05/14 00:35:26;;;;;;;;;;;;;;;;;;5075482;28;28478;-80
2022/05/14 00:37:51;;;;;;;;;;;;;;;;;;5075667;28;28381;-80
2022/05/14 00:40:17;;;;;;;;;;;;;;;;;;5075160;28;28393;-80
2022/05/14 00:42:42;;;;;;;;;;;;;;;;;;5075487;28;28395;-81
2022/05/14 00:45:07;;;;;;;;;;;;;;;;;;5075475;28;28508;-80
2022/05/14 00:47:33;;;;;;;;;;;;;;;;;;5075364;28;28379;-80
2022/05/14 00:49:58;;;;;;;;;;;;;;;;;;5075237;28;28322;-80
2022/05/14 00:52:23;;;;;;;;;;;;;;;;;;5075259;28;28335;-81
2022/05/14 00:54:48;;;;;;;;;;;;;;;;;;5075483;28;28469;-81
2022/05/14 00:57:13;;;;;;;;;;;;;;;;;;5075299;28;27975;-81
2022/05/14 00:59:38;;;;;;;;;;;;;;;;;;5074926;28;28514;-81
2022/05/14 01:02:06;;;;;;;;;;;;;;;;;;5075297;28;28466;-81
2022/05/14 01:04:31;;;;;;;;;;;;;;;;;;5075104;28;28427;-81
2022/05/14 01:06:56;;;;;;;;;;;;;;;;;;5075075;28;28405;-81
2022/05/14 01:09:21;;;;;;;;;;;;;;;;;;5075026;28;29255;-80
2022/05/14 01:11:47;;;;;;;;;;;;;;;;;;5074709;28;28475;-80
2022/05/14 01:14:12;;;;;;;;;;;;;;;;;;5075308;28;28373;-81
2022/05/14 01:16:37;;;;;;;;;;;;;;;;;;5075044;28;28399;-80
2022/05/14 01:19:02;;;;;;;;;;;;;;;;;;5075007;28;28336;-81
2022/05/14 01:21:27;;;;;;;;;;;;;;;;;;5074917;28;28397;-80
2022/05/14 01:26:36;;;;;;;;;;;;;;;;;;5075113;28;28281;-81
2022/05/14 01:29:01;;;;;;;;;;;;;;;;;;5074727;28;29637;-81
2022/05/14 01:31:27;;;;;;;;;;;;;;;;;;5074662;28;28459;-81
2022/05/14 01:33:52;;;;;;;;;;;;;;;;;;5073473;28;28313;-80
2022/05/14 01:36:17;;;;;;;;;;;;;;;;;;5075110;28;28404;-81
2022/05/14 01:38:42;;;;;;;;;;;;;;;;;;5075058;28;29596;-81
2022/05/14 01:41:09;;;;;;;;;;;;;;;;;;5074827;28;28458;-81
2022/05/14 01:43:34;;;;;;;;;;;;;;;;;;5076251;28;27823;-81
2022/05/14 01:45:59;;;;;;;;;;;;;;;;;;5078428;28;28405;-81
2022/05/14 01:48:24;;;;;;;;;;;;;;;;;;5078162;28;29286;-81
2022/05/14 01:50:50;;;;;;;;;;;;;;;;;;5078253;28;28494;-81
2022/05/14 01:53:15;;;;;;;;;;;;;;;;;;5078096;28;28273;-81
2022/05/14 01:55:40;;;;;;;;;;;;;;;;;;5078117;28;28414;-81
2022/05/14 01:58:36;;;;;;;;;;;;;;;;;;5077942;28;29712;-80
2022/05/14 02:00:50;;;;;;;;;;;;;;;;;;5076809;28;28525;-80
2022/05/14 02:03:15;;;;;;;;;;;;;;;;;;5077806;28;28361;-80
2022/05/14 02:05:40;;;;;;;;;;;;;;;;;;5078355;28;28375;-80
2022/05/14 02:08:06;;;;;;;;;;;;;;;;;;5077703;28;29445;-80
2022/05/14 02:10:31;;;;;;;;;;;;;;;;;;5077730;28;28227;-80
2022/05/14 02:12:57;;;;;;;;;;;;;;;;;;5077749;28;27768;-80
2022/05/14 02:15:22;;;;;;;;;;;;;;;;;;5077864;28;28389;-80
2022/05/14 02:17:47;;;;;;;;;;;;;;;;;;5077756;28;28418;-80
2022/05/14 02:20:13;;;;;;;;;;;;;;;;;;5077684;28;28562;-80
2022/05/14 02:22:38;;;;;;;;;;;;;;;;;;5077985;28;28478;-80
2022/05/14 02:25:03;;;;;;;;;;;;;;;;;;5077736;28;28450;-80
2022/05/14 02:27:28;;;;;;;;;;;;;;;;;;5077400;28;28626;-80
2022/05/14 02:29:54;;;;;;;;;;;;;;;;;;5077773;28;28382;-81
2022/05/14 02:32:19;;;;;;;;;;;;;;;;;;5077668;28;28529;-80
2022/05/14 02:34:45;;;;;;;;;;;;;;;;;;5077613;28;28411;-80
2022/05/14 02:37:10;;;;;;;;;;;;;;;;;;5077364;28;28508;-80
2022/05/14 02:39:35;;;;;;;;;;;;;;;;;;5077439;28;28394;-80
2022/05/14 02:42:00;;;;;;;;;;;;;;;;;;5077666;28;28367;-80
2022/05/14 02:44:25;;;;;;;;;;;;;;;;;;5077371;28;28330;-80
2022/05/14 02:46:50;;;;;;;;;;;;;;;;;;5077362;28;28453;-80
2022/05/14 02:49:15;;;;;;;;;;;;;;;;;;5077243;28;28485;-80
2022/05/14 02:51:40;;;;;;;;;;;;;;;;;;5077194;28;28355;-81
2022/05/14 02:54:05;;;;;;;;;;;;;;;;;;5077181;28;28342;-80
2022/05/14 02:56:31;;;;;;;;;;;;;;;;;;5077040;28;29421;-80
2022/05/14 02:59:08;;;;;;;;;;;;;;;;;;5076816;28;28383;-81
2022/05/14 03:01:33;;;;;;;;;;;;;;;;;;5076157;28;28655;-80
2022/05/14 03:03:59;;;;;;;;;;;;;;;;;;5076724;28;28296;-80
2022/05/14 03:06:24;;;;;;;;;;;;;;;;;;5077171;28;29237;-80
2022/05/14 03:08:50;;;;;;;;;;;;;;;;;;5076829;28;27880;-80
2022/05/14 03:11:15;;;;;;;;;;;;;;;;;;5076836;28;28250;-81
2022/05/14 03:13:40;;;;;;;;;;;;;;;;;;5077033;28;28220;-81
2022/05/14 03:16:05;;;;;;;;;;;;;;;;;;5076933;28;28281;-81
2022/05/14 03:18:31;;;;;;;;;;;;;;;;;;5077098;28;28261;-80
2022/05/14 03:20:56;;;;;;;;;;;;;;;;;;5076882;28;28249;-80
2022/05/14 03:23:21;;;;;;;;;;;;;;;;;;5077001;28;27756;-80
2022/05/14 03:25:46;;;;;;;;;;;;;;;;;;5076500;28;29207;-80
2022/05/14 03:28:11;;;;;;;;;;;;;;;;;;5076485;28;28372;-81
2022/05/14 03:30:37;;;;;;;;;;;;;;;;;;5076764;28;28415;-80
2022/05/14 03:33:02;;;;;;;;;;;;;;;;;;5076793;28;28242;-80
2022/05/14 03:35:27;;;;;;;;;;;;;;;;;;5076506;28;28510;-80
2022/05/14 03:37:52;;;;;;;;;;;;;;;;;;5076492;28;28351;-80
2022/05/14 03:40:17;;;;;;;;;;;;;;;;;;5076678;28;28482;-79
2022/05/14 03:42:42;;;;;;;;;;;;;;;;;;5076668;28;28452;-80
2022/05/14 03:45:07;;;;;;;;;;;;;;;;;;5076410;28;28384;-79
2022/05/14 03:47:32;;;;;;;;;;;;;;;;;;5076411;28;28454;-80
2022/05/14 03:49:58;;;;;;;;;;;;;;;;;;5058098;28;28401;-80
2022/05/14 03:52:23;;;;;;;;;;;;;;;;;;5076300;28;28344;-80
2022/05/14 03:54:48;;;;;;;;;;;;;;;;;;5076382;28;28699;-79
2022/05/14 03:57:14;;;;;;;;;;;;;;;;;;5076210;28;28402;-80
2022/05/14 03:59:39;;;;;;;;;;;;;;;;;;5076015;28;28387;-80
2022/05/14 04:02:04;;;;;;;;;;;;;;;;;;5076233;28;28399;-80
2022/05/14 04:04:30;;;;;;;;;;;;;;;;;;5075953;28;28579;-80
2022/05/14 04:06:55;;;;;;;;;;;;;;;;;;5075315;28;28416;-80
2022/05/14 04:09:21;;;;;;;;;;;;;;;;;;5076064;28;28351;-80
2022/05/14 04:11:46;;;;;;;;;;;;;;;;;;5076175;28;28442;-80
2022/05/14 04:14:11;;;;;;;;;;;;;;;;;;5075680;28;28455;-80
2022/05/14 04:16:36;;;;;;;;;;;;;;;;;;5076032;28;28383;-80
2022/05/14 04:19:01;;;;;;;;;;;;;;;;;;5075881;28;28413;-80
2022/05/14 04:21:26;;;;;;;;;;;;;;;;;;5075919;28;28339;-80
2022/05/14 04:23:52;;;;;;;;;;;;;;;;;;5075933;28;28450;-80
2022/05/14 04:26:22;;;;;;;;;;;;;;;;;;5075624;28;28506;-79
2022/05/14 04:28:47;;;;;;;;;;;;;;;;;;5075334;28;28366;-80
2022/05/14 04:31:12;;;;;;;;;;;;;;;;;;5075907;28;28461;-80
2022/05/14 04:33:37;;;;;;;;;;;;;;;;;;5075719;28;28370;-80
2022/05/14 04:36:02;;;;;;;;;;;;;;;;;;5075839;28;28666;-80
2022/05/14 04:38:27;;;;;;;;;;;;;;;;;;5075626;28;27763;-80
2022/05/14 04:40:53;;;;;;;;;;;;;;;;;;5075746;28;28498;-80
2022/05/14 04:43:18;;;;;;;;;;;;;;;;;;5075336;28;29326;-80
2022/05/14 04:45:43;;;;;;;;;;;;;;;;;;5075372;28;28499;-80
2022/05/14 04:48:08;;;;;;;;;;;;;;;;;;5075611;28;28466;-80
2022/05/14 04:50:33;;;;;;;;;;;;;;;;;;5075361;28;28835;-80
2022/05/14 04:52:59;;;;;;;;;;;;;;;;;;5075425;28;29551;-80
2022/05/14 04:55:24;;;;;;;;;;;;;;;;;;5075431;28;28395;-80
2022/05/14 04:57:49;;;;;;;;;;;;;;;;;;5075276;28;28420;-80
2022/05/14 05:00:14;;;;;;;;;;;;;;;;;;5074961;28;28390;-80
2022/05/14 05:05:24;;;;;;;;;;;;;;;;;;5075138;28;28894;-80
2022/05/14 05:07:49;;;;;;;;;;;;;;;;;;5075301;28;28392;-80
2022/05/14 05:10:14;;;;;;;;;;;;;;;;;;5075173;28;28388;-80
2022/05/14 05:12:39;;;;;;;;;;;;;;;;;;5075229;28;28459;-80
2022/05/14 05:15:04;;;;;;;;;;;;;;;;;;5075149;28;28546;-80
2022/05/14 05:17:29;;;;;;;;;;;;;;;;;;5076608;28;28328;-80
2022/05/14 05:19:54;;;;;;;;;;;;;;;;;;5079103;28;28497;-80
2022/05/14 05:22:19;;;;;;;;;;;;;;;;;;5078423;28;28614;-80
2022/05/14 05:24:46;;;;;;;;;;;;;;;;;;5078573;28;28517;-80
2022/05/14 05:27:11;;;;;;;;;;;;;;;;;;5078717;28;28351;-80
2022/05/14 05:29:36;;;;;;;;;;;;;;;;;;5078447;28;28328;-81
2022/05/14 05:32:01;;;;;;;;;;;;;;;;;;5078424;28;28443;-80
2022/05/14 05:34:27;;;;;;;;;;;;;;;;;;5078355;28;28462;-80
2022/05/14 05:36:52;;;;;;;;;;;;;;;;;;5078518;28;28355;-80
2022/05/14 05:39:17;;;;;;;;;;;;;;;;;;5078458;28;28450;-80
2022/05/14 05:41:42;;;;;;;;;;;;;;;;;;5078328;28;28470;-80
2022/05/14 05:44:08;;;;;;;;;;;;;;;;;;5078281;28;28400;-80
2022/05/14 05:46:33;;;;;;;;;;;;;;;;;;5078085;28;28309;-80
2022/05/14 05:48:58;;;;;;;;;;;;;;;;;;5078425;28;28241;-80
2022/05/14 05:51:23;;;;;;;;;;;;;;;;;;5059958;28;29123;-80
2022/05/14 05:56:51;;;;;;;;;;;;;;;;;;5078091;28;28420;-80
2022/05/14 05:59:16;;;;;;;;;;;;;;;;;;5077690;28;28398;-80
2022/05/14 06:01:41;;;;;;;;;;;;;;;;;;5077740;28;28390;-80
2022/05/14 06:04:07;;;;;;;;;;;;;;;;;;5077801;28;28402;-80
2022/05/14 06:06:32;;;;;;;;;;;;;;;;;;5078156;28;28419;-80
2022/05/14 06:08:57;;;;;;;;;;;;;;;;;;5077996;28;28483;-80
2022/05/14 06:11:22;;;;;;;;;;;;;;;;;;5077794;28;29463;-80
2022/05/14 06:13:47;;;;;;;;;;;;;;;;;;5077799;28;28383;-80
2022/05/14 06:16:12;;;;;;;;;;;;;;;;;;5077877;28;28571;-80
2022/05/14 06:18:42;;;;;;;;;;;;;;;;;;5078093;28;28379;-80
2022/05/14 06:21:07;;;;;;;;;;;;;;;;;;5077695;28;28588;-80
2022/05/14 06:23:32;;;;;;;;;;;;;;;;;;5059388;28;28742;-80
2022/05/14 06:25:57;;;;;;;;;;;;;;;;;;5077599;28;28296;-80
2022/05/14 06:28:22;;;;;;;;;;;;;;;;;;5077268;28;28269;-80
2022/05/14 06:30:47;;;;;;;;;;;;;;;;;;5077508;28;28568;-79
2022/05/14 06:33:13;;;;;;;;;;;;;;;;;;5077355;28;28473;-79
2022/05/14 06:35:38;;;;;;;;;;;;;;;;;;5077368;28;28391;-80
2022/05/14 06:38:03;;;;;;;;;;;;;;;;;;5077422;28;28383;-80
2022/05/14 06:40:28;;;;;;;;;;;;;;;;;;5077369;28;29519;-80
2022/05/14 06:42:53;;;;;;;;;;;;;;;;;;5077548;28;28450;-80
2022/05/14 06:45:18;;;;;;;;;;;;;;;;;;5077315;28;28328;-80
2022/05/14 06:47:44;;;;;;;;;;;;;;;;;;5077244;28;28435;-80
2022/05/14 06:50:09;;;;;;;;;;;;;;;;;;5077038;28;28416;-81
2022/05/14 06:52:34;;;;;;;;;;;;;;;;;;5077131;28;28328;-82
2022/05/14 06:54:59;;;;;;;;;;;;;;;;;;5077319;28;28332;-82
2022/05/14 06:57:24;;;;;;;;;;;;;;;;;;5076968;28;28407;-82
2022/05/14 06:59:49;;;;;;;;;;;;;;;;;;5058452;28;29990;-81
2022/05/14 07:02:14;;;;;;;;;;;;;;;;;;5077052;28;28264;-81
2022/05/14 07:07:23;;;;;;;;;;;;;;;;;;5077114;28;28431;-80
2022/05/14 07:09:49;;;;;;;;;;;;;;;;;;5076753;28;28545;-80
2022/05/14 07:12:15;;;;;;;;;;;;;;;;;;5076639;28;28419;-81
2022/05/14 07:14:40;;;;;;;;;;;;;;;;;;5076927;28;28381;-81
2022/05/14 07:17:05;;;;;;;;;;;;;;;;;;5077139;28;28342;-81
2022/05/14 07:19:30;;;;;;;;;;;;;;;;;;5077033;28;28482;-80
2022/05/14 07:21:55;;;;;;;;;;;;;;;;;;5076767;28;28478;-81
2022/05/14 07:24:21;;;;;;;;;;;;;;;;;;5076881;28;28411;-80
2022/05/14 07:26:46;;;;;;;;;;;;;;;;;;5076989;28;28439;-81
2022/05/14 07:29:12;;;;;;;;;;;;;;;;;;5076376;28;28479;-81
2022/05/14 07:31:37;;;;;;;;;;;;;;;;;;5076640;28;28412;-80
2022/05/14 07:34:02;;;;;;;;;;;;;;;;;;5076682;28;28470;-80
2022/05/14 07:36:27;;;;;;;;;;;;;;;;;;5076710;28;28332;-81
2022/05/14 07:38:52;;;;;;;;;;;;;;;;;;5076636;28;28330;-81
2022/05/14 07:41:17;;;;;;;;;;;;;;;;;;5075364;28;28312;-81
2022/05/14 07:43:43;;;;;;;;;;;;;;;;;;5076742;28;28327;-81
2022/05/14 07:46:08;;;;;;;;;;;;;;;;;;5075837;28;28352;-81
2022/05/14 07:48:33;;;;;;;;;;;;;;;;;;5076231;28;28514;-81
2022/05/14 07:50:58;;;;;;;;;;;;;;;;;;5075981;28;28079;-81
2022/05/14 07:53:30;;;;;;;;;;;;;;;;;;5075998;28;28286;-81
2022/05/14 07:55:55;;;;;;;;;;;;;;;;;;5076415;28;28421;-82
2022/05/14 07:58:20;;;;;;;;;;;;;;;;;;5075028;28;28356;-80
2022/05/14 08:00:45;;;;;;;;;;;;;;;;;;5075592;28;28430;-81
2022/05/14 08:03:10;;;;;;;;;;;;;;;;;;5076237;28;28340;-81
2022/05/14 08:05:35;;;;;;;;;;;;;;;;;;5076102;28;28345;-81
2022/05/14 08:08:00;;;;;;;;;;;;;;;;;;5076048;28;28472;-81
2022/05/14 08:10:25;;;;;;;;;;;;;;;;;;5075786;28;28516;-81
2022/05/14 08:12:53;;;;;;;;;;;;;;;;;;5076292;28;28360;-81
2022/05/14 08:15:18;;;;;;;;;;;;;;;;;;5076021;28;28316;-81
2022/05/14 08:17:43;;;;;;;;;;;;;;;;;;5075584;28;28316;-81
2022/05/14 08:20:08;;;;;;;;;;;;;;;;;;5075389;28;28365;-81
2022/05/14 08:25:17;;;;;;;;;;;;;;;;;;5076030;28;28261;-81
2022/05/14 08:27:45;;;;;;;;;;;;;;;;;;5075865;28;28715;-81
2022/05/14 08:30:10;;;;;;;;;;;;;;;;;;5075377;28;28254;-81
2022/05/14 08:32:36;;;;;;;;;;;;;;;;;;5075859;28;28469;-81
2022/05/14 08:35:01;;;;;;;;;;;;;;;;;;5075967;28;28369;-81
2022/05/14 08:37:26;;;;;;;;;;;;;;;;;;5075284;28;29634;-81
2022/05/14 08:39:51;;;;;;;;;;;;;;;;;;5075499;28;28288;-81
2022/05/14 08:42:17;;;;;;;;;;;;;;;;;;5075606;28;28385;-81
2022/05/14 08:44:44;;;;;;;;;;;;;;;;;;5075702;28;28450;-82
2022/05/14 08:47:09;;;;;;;;;;;;;;;;;;5075472;28;28422;-82
2022/05/14 08:49:34;;;;;;;;;;;;;;;;;;5075533;28;28342;-82
2022/05/14 08:51:59;;;;;;;;;;;;;;;;;;5074612;28;28394;-82
2022/05/14 08:54:24;;;;;;;;;;;;;;;;;;5075972;28;28345;-80
2022/05/14 08:56:49;;;;;;;;;;;;;;;;;;5075357;28;28542;-81
2022/05/14 08:59:15;;;;;;;;;;;;;;;;;;5074987;28;28537;-82
2022/05/14 09:01:40;;;;;;;;;;;;;;;;;;5075172;28;28312;-81
2022/05/14 09:04:05;;;;;;;;;;;;;;;;;;5075511;28;28502;-83
2022/05/14 09:06:30;;;;;;;;;;;;;;;;;;5074869;28;28434;-83
2022/05/14 09:08:55;;;;;;;;;;;;;;;;;;5075321;28;28349;-83
2022/05/14 09:11:20;;;;;;;;;;;;;;;;;;5075260;28;28419;-81
2022/05/14 09:13:46;;;;;;;;;;;;;;;;;;5075420;28;28332;-84
2022/05/14 09:16:11;;;;;;;;;;;;;;;;;;5074990;28;29144;-82
2022/05/14 09:18:36;;;;;;;;;;;;;;;;;;5074972;28;27963;-83
2022/05/14 09:21:01;;;;;;;;;;;;;;;;;;5075184;28;27891;-85
2022/05/14 09:23:26;;;;;;;;;;;;;;;;;;5075090;28;28509;-86
2022/05/14 09:25:52;;;;;;;;;;;;;;;;;;5074933;28;29441;-82
2022/05/14 09:28:17;;;;;;;;;;;;;;;;;;5075130;28;28389;-83
2022/05/14 09:30:43;;;;;;;;;;;;;;;;;;5074776;28;28505;-89
2022/05/14 09:33:08;;;;;;;;;;;;;;;;;;5075092;28;28319;-83
2022/05/14 09:35:33;;;;;;;;;;;;;;;;;;5074735;28;29372;-82
2022/05/14 09:37:58;;;;;;;;;;;;;;;;;;5074940;28;28289;-83
2022/05/14 09:40:24;;;;;;;;;;;;;;;;;;5075244;28;28401;-83
2022/05/14 09:42:49;;;;;;;;;;;;;;;;;;5074811;28;28469;-83
2022/05/14 09:45:14;;;;;;;;;;;;;;;;;;5074768;28;29291;-83
2022/05/14 09:47:39;;;;;;;;;;;;;;;;;;5074561;28;28446;-83
2022/05/14 09:50:04;;;;;;;;;;;;;;;;;;5074617;28;28313;-83
2022/05/14 09:52:29;;;;;;;;;;;;;;;;;;5074820;28;28509;-83
2022/05/14 09:54:54;;;;;;;;;;;;;;;;;;5074576;28;29414;-86
2022/05/14 09:57:20;;;;;;;;;;;;;;;;;;5074718;28;28311;-81
2022/05/14 09:59:45;;;;;;;;;;;;;;;;;;5074288;28;28427;-83
2022/05/14 10:02:11;;;;;;;;;;;;;;;;;;5074648;28;28392;-83
2022/05/14 10:04:36;;;;;;;;;;;;;;;;;;5076335;28;29058;-83
2022/05/14 10:07:01;;;;;;;;;;;;;;;;;;5078005;28;28240;-86
2022/05/14 10:09:26;;;;;;;;;;;;;;;;;;5077555;28;28323;-89
2022/05/14 10:11:51;;;;;;;;;;;;;;;;;;5076814;28;28508;-84
2022/05/14 10:14:16;;;;;;;;;;;;;;;;;;5077290;28;29340;-86
2022/05/14 10:16:42;;;;;;;;;;;;;;;;;;5077443;28;28411;-84
2022/05/14 10:19:07;;;;;;;;;;;;;;;;;;5077746;28;28269;-82
2022/05/14 10:21:32;;;;;;;;;;;;;;;;;;5077589;28;28298;-84
2022/05/14 10:26:47;;;;;;;;;;;;;;;;;;5077679;28;28484;-84
2022/05/14 10:29:13;;;;;;;;;;;;;;;;;;5077790;28;28525;-82
2022/05/14 10:31:38;;;;;;;;;;;;;;;;;;5077114;28;28545;-83
2022/05/14 10:34:03;;;;;;;;;;;;;;;;;;5077139;28;28450;-82
2022/05/14 10:36:28;;;;;;;;;;;;;;;;;;5077373;28;28213;-85
2022/05/14 10:38:53;;;;;;;;;;;;;;;;;;5077570;28;28249;-82
2022/05/14 10:41:18;;;;;;;;;;;;;;;;;;5077712;28;28271;-86
2022/05/14 10:43:43;;;;;;;;;;;;;;;;;;5077013;28;29338;-84
2022/05/14 10:46:08;;;;;;;;;;;;;;;;;;5077141;28;28253;-81
2022/05/14 10:48:37;;;;;;;;;;;;;;;;;;5077573;28;28248;-81
2022/05/14 10:51:02;;;;;;;;;;;;;;;;;;5077463;28;27873;-83
2022/05/14 10:53:27;;;;;;;;;;;;;;;;;;5077634;28;28539;-88
2022/05/14 10:55:53;;;;;;;;;;;;;;;;;;5077316;28;28573;-88
2022/05/14 10:58:19;;;;;;;;;;;;;;;;;;5077070;28;28411;-82
2022/05/14 11:00:46;;;;;;;;;;;;;;;;;;5077141;28;28394;-82
2022/05/14 11:03:11;;;;;;;;;;;;;;;;;;5076939;28;28861;-86
2022/05/14 11:05:36;;;;;;;;;;;;;;;;;;5058920;28;28769;-82
2022/05/14 11:08:01;;;;;;;;;;;;;;;;;;5077202;28;28351;-84
2022/05/14 11:10:27;;;;;;;;;;;;;;;;;;5077119;28;28319;-85
2022/05/14 11:12:52;;;;;;;;;;;;;;;;;;5076855;28;28505;-83
2022/05/14 11:15:17;;;;;;;;;;;;;;;;;;5076402;28;28359;-85
2022/05/14 11:17:42;;;;;;;;;;;;;;;;;;5077114;28;28491;-81
2022/05/14 11:20:07;;;;;;;;;;;;;;;;;;5076978;28;35033;-84
2022/05/14 11:22:33;;;;;;;;;;;;;;;;;;5076640;28;28680;-85
2022/05/14 11:24:58;;;;;;;;;;;;;;;;;;5078054;28;28418;-85
2022/05/14 11:27:23;;;;;;;;;;;;;;;;;;5097068;28;28494;-84
2022/05/14 11:29:48;;;;;;;;;;;;;;;;;;5097114;28;28402;-86
2022/05/14 11:32:13;;;;;;;;;;;;;;;;;;5094351;27;28634;-82
2022/05/14 11:34:38;;;;;;;;;;;;;;;;;;5094598;28;28338;-89
2022/05/14 11:37:04;;;;;;;;;;;;;;;;;;5077707;28;28502;-82
2022/05/14 11:39:29;;;;;;;;;;;;;;;;;;5079086;28;28241;-88
2022/05/14 11:41:54;;;;;;;;;;;;;;;;;;5059125;28;28537;-84
2022/05/14 11:44:19;;;;;;;;;;;;;;;;;;5082007;28;28245;-89
2022/05/14 11:46:44;;;;;;;;;;;;;;;;;;5089901;27;28632;-87
2022/05/14 11:49:09;;;;;;;;;;;;;;;;;;5079028;28;28579;-86
2022/05/14 11:51:35;;;;;;;;;;;;;;;;;;5082403;28;29493;-88
2022/05/14 11:54:00;;;;;;;;;;;;;;;;;;5088264;28;28191;-88
2022/05/14 11:56:25;;;;;;;;;;;;;;;;;;5076236;28;28308;-85
2022/05/14 11:58:50;;;;;;;;;;;;;;;;;;5075809;28;27732;-83
2022/05/14 12:01:15;;;;;;;;;;;;;;;;;;5073545;28;28359;-87
2022/05/14 12:03:40;;;;;;;;;;;;;;;;;;5077609;28;28446;-87
2022/05/14 12:06:05;;;;;;;;;;;;;;;;;;5090887;28;28449;-82
2022/05/14 12:08:31;;;;;;;;;;;;;;;;;;5086761;28;28310;-83
2022/05/14 12:10:56;;;;;;;;;;;;;;;;;;5076950;28;28397;-81
2022/05/14 12:13:21;;;;;;;;;;;;;;;;;;5083923;28;28332;-93
2022/05/14 12:15:47;;;;;;;;;;;;;;;;;;5084834;27;28295;-81
2022/05/14 12:18:12;;;;;;;;;;;;;;;;;;5085361;28;28296;-86
2022/05/14 12:20:37;;;;;;;;;;;;;;;;;;5090132;28;28462;-87
2022/05/14 12:23:02;;;;;;;;;;;;;;;;;;5075686;28;28363;-86
2022/05/14 12:25:27;;;;;;;;;;;;;;;;;;5075703;28;28385;-88
2022/05/14 12:27:52;;;;;;;;;;;;;;;;;;5084935;28;28560;-86
2022/05/14 12:33:11;;;;;;;;;;;;;;;;;;5077993;28;28288;-86
2022/05/14 12:33:11;;;;;;;;;;;;;;;;;;5082885;28;28450;-86
2022/05/14 12:35:36;;;;;;;;;;;;;;;;;;5080858;28;28498;-83
2022/05/14 12:38:02;;;;;;;;;;;;;;;;;;5075799;28;28249;-89
2022/05/14 12:40:27;;;;;;;;;;;;;;;;;;5075223;28;29606;-84
2022/05/14 12:42:52;;;;;;;;;;;;;;;;;;5073122;28;28421;-85
2022/05/14 12:45:17;;;;;;;;;;;;;;;;;;5081881;28;28364;-87
2022/05/14 12:47:42;;;;;;;;;;;;;;;;;;5090235;28;28482;-92
2022/05/14 12:50:08;;;;;;;;;;;;;;;;;;5068075;28;29577;-89
2022/05/14 12:52:33;;;;;;;;;;;;;;;;;;5077700;28;28471;-89
2022/05/14 12:54:58;;;;;;;;;;;;;;;;;;5075378;28;28612;-89
2022/05/14 12:57:23;;;;;;;;;;;;;;;;;;5075789;28;28410;-89
2022/05/14 12:59:48;;;;;;;;;;;;;;;;;;5075085;28;28411;-87
2022/05/14 13:02:13;;;;;;;;;;;;;;;;;;5075136;28;28438;-89
2022/05/14 13:04:38;;;;;;;;;;;;;;;;;;5075474;28;28459;-89
2022/05/14 13:07:03;;;;;;;;;;;;;;;;;;5057271;28;28398;-89
2022/05/14 13:09:29;;;;;;;;;;;;;;;;;;5075192;28;29456;-89
2022/05/14 13:11:54;;;;;;;;;;;;;;;;;;5056783;28;28529;-88
2022/05/14 13:14:23;;;;;;;;;;;;;;;;;;5075351;28;28356;-89
2022/05/14 13:16:48;;;;;;;;;;;;;;;;;;5075265;28;28478;-89
2022/05/14 13:19:13;;;;;;;;;;;;;;;;;;5075043;28;28520;-88
2022/05/14 13:21:38;;;;;;;;;;;;;;;;;;5075091;28;28288;-89
2022/05/14 13:24:04;;;;;;;;;;;;;;;;;;5074981;28;28308;-88
2022/05/14 13:26:29;;;;;;;;;;;;;;;;;;5075375;28;28254;-89
2022/05/14 13:28:54;;;;;;;;;;;;;;;;;;5074853;28;28363;-88
2022/05/14 13:31:19;;;;;;;;;;;;;;;;;;5074940;28;28257;-87
2022/05/14 13:33:44;;;;;;;;;;;;;;;;;;5075017;28;28306;-88
2022/05/14 13:38:53;;;;;;;;;;;;;;;;;;5076923;28;28698;-88
2022/05/14 13:41:21;;;;;;;;;;;;;;;;;;5060299;28;29113;-88
2022/05/14 13:43:46;;;;;;;;;;;;;;;;;;5060306;28;28413;-88
2022/05/14 13:46:14;;;;;;;;;;;;;;;;;;5078558;28;28468;-88
2022/05/14 13:48:39;;;;;;;;;;;;;;;;;;5078033;28;28323;-88
2022/05/14 13:51:04;;;;;;;;;;;;;;;;;;5078070;28;28395;-88
2022/05/14 13:53:29;;;;;;;;;;;;;;;;;;5084834;28;28685;-84
2022/05/14 13:55:54;;;;;;;;;;;;;;;;;;5095229;27;28469;-83
2022/05/14 13:58:19;;;;;;;;;;;;;;;;;;5097960;28;28515;-85
2022/05/14 14:00:45;;;;;;;;;;;;;;;;;;5097419;27;28506;-84
2022/05/14 14:03:10;;;;;;;;;;;;;;;;;;5097573;28;28481;-83
2022/05/14 14:05:35;;;;;;;;;;;;;;;;;;5097245;27;28416;-89
2022/05/14 14:08:00;;;;;;;;;;;;;;;;;;5097557;27;28476;-89
2022/05/14 14:10:25;;;;;;;;;;;;;;;;;;5079417;28;29246;-89
2022/05/14 14:12:51;;;;;;;;;;;;;;;;;;5097778;27;28493;-88
2022/05/14 14:15:16;;;;;;;;;;;;;;;;;;5095789;27;28410;-86
2022/05/14 14:17:41;;;;;;;;;;;;;;;;;;5075900;28;28537;-88
2022/05/14 14:20:06;;;;;;;;;;;;;;;;;;5076884;28;28377;-85
2022/05/14 14:22:31;;;;;;;;;;;;;;;;;;5058994;28;28542;-84
2022/05/14 14:24:56;;;;;;;;;;;;;;;;;;5077274;28;28446;-84
2022/05/14 14:27:21;;;;;;;;;;;;;;;;;;5076875;28;28588;-84
2022/05/14 14:29:46;;;;;;;;;;;;;;;;;;5097429;28;28513;-86
2022/05/14 14:32:12;;;;;;;;;;;;;;;;;;5097015;27;28539;-87
2022/05/14 14:34:38;;;;;;;;;;;;;;;;;;5097506;27;28809;-88
2022/05/14 14:37:03;;;;;;;;;;;;;;;;;;5090372;28;28454;-83
2022/05/14 14:39:28;;;;;;;;;;;;;;;;;;5077889;28;28289;-85
2022/05/14 14:41:54;;;;;;;;;;;;;;;;;;5092320;27;28379;-83
2022/05/14 14:44:19;;;;;;;;;;;;;;;;;;5086970;28;28396;-83
2022/05/14 14:46:45;;;;;;;;;;;;;;;;;;5077192;28;28519;-81
2022/05/14 14:49:12;;;;;;;;;;;;;;;;;;5076525;28;28459;-86
2022/05/14 14:51:37;;;;;;;;;;;;;;;;;;5058379;28;28431;-82
2022/05/14 14:54:03;;;;;;;;;;;;;;;;;;5077285;28;28395;-83
2022/05/14 14:56:28;;;;;;;;;;;;;;;;;;5076817;28;29615;-86
2022/05/14 14:58:55;;;;;;;;;;;;;;;;;;5078106;28;28422;-84
2022/05/14 15:01:20;;;;;;;;;;;;;;;;;;5077145;28;28519;-83
2022/05/14 15:03:45;;;;;;;;;;;;;;;;;;5077106;28;28501;-84
2022/05/14 15:06:14;;;;;;;;;;;;;;;;;;5076896;28;29494;-84
2022/05/14 15:08:40;;;;;;;;;;;;;;;;;;5077022;28;28249;-83
2022/05/14 15:11:05;;;;;;;;;;;;;;;;;;5077210;28;28292;-84
2022/05/14 15:13:30;;;;;;;;;;;;;;;;;;5077000;28;28300;-83
2022/05/14 15:15:55;;;;;;;;;;;;;;;;;;5076875;28;28441;-83
2022/05/14 15:18:20;;;;;;;;;;;;;;;;;;5077068;28;28543;-84
2022/05/14 15:20:45;;;;;;;;;;;;;;;;;;5076864;28;28348;-84
2022/05/14 15:23:10;;;;;;;;;;;;;;;;;;5077198;28;28258;-84
2022/05/14 15:25:35;;;;;;;;;;;;;;;;;;5076551;28;29323;-84
2022/05/14 15:28:01;;;;;;;;;;;;;;;;;;5076858;28;28256;-84
2022/05/14 15:30:26;;;;;;;;;;;;;;;;;;5076591;28;28257;-84
2022/05/14 15:32:51;;;;;;;;;;;;;;;;;;5076881;28;28323;-84
2022/05/14 15:35:16;;;;;;;;;;;;;;;;;;5076643;28;29600;-83
2022/05/14 15:37:41;;;;;;;;;;;;;;;;;;5076474;28;28493;-84
2022/05/14 15:40:07;;;;;;;;;;;;;;;;;;5076847;28;28486;-84
2022/05/14 15:42:32;;;;;;;;;;;;;;;;;;5076503;28;28316;-84
2022/05/14 15:44:57;;;;;;;;;;;;;;;;;;5076443;28;28295;-84
2022/05/14 15:47:22;;;;;;;;;;;;;;;;;;5076488;28;28241;-84
2022/05/14 15:49:49;;;;;;;;;;;;;;;;;;5076239;28;28435;-84
2022/05/14 15:52:14;;;;;;;;;;;;;;;;;;5076377;28;28418;-84
2022/05/14 15:54:39;;;;;;;;;;;;;;;;;;5076093;28;29327;-84
2022/05/14 15:57:04;;;;;;;;;;;;;;;;;;5076245;28;28343;-84
2022/05/14 15:59:29;;;;;;;;;;;;;;;;;;5058101;28;28434;-84
2022/05/14 16:01:55;;;;;;;;;;;;;;;;;;5075226;28;27748;-84
2022/05/14 16:04:21;;;;;;;;;;;;;;;;;;5076117;28;28513;-84
2022/05/14 16:06:46;;;;;;;;;;;;;;;;;;5075925;28;28370;-84
2022/05/14 16:09:11;;;;;;;;;;;;;;;;;;5076170;28;28332;-84
2022/05/14 16:17:03;;;;;;;;;;;;;;;;;;5075815;28;28422;-84
2022/05/14 16:19:29;;;;;;;;;;;;;;;;;;5076020;28;28478;-84
2022/05/14 16:21:54;;;;;;;;;;;;;;;;;;5076340;28;28356;-84
2022/05/14 16:24:20;;;;;;;;;;;;;;;;;;5075822;28;28510;-84
2022/05/14 16:26:45;;;;;;;;;;;;;;;;;;5076007;28;28362;-84
2022/05/14 16:29:10;;;;;;;;;;;;;;;;;;5075939;28;28358;-84
2022/05/14 16:31:35;;;;;;;;;;;;;;;;;;5075873;28;28475;-84
2022/05/14 16:34:01;;;;;;;;;;;;;;;;;;5075773;28;28522;-84
2022/05/14 16:36:26;;;;;;;;;;;;;;;;;;5075649;28;28466;-84
2022/05/14 16:38:51;;;;;;;;;;;;;;;;;;5075870;28;28391;-84
2022/05/14 16:41:16;;;;;;;;;;;;;;;;;;5075773;28;28335;-84
2022/05/14 16:43:41;;;;;;;;;;;;;;;;;;5075523;28;28420;-84
2022/05/14 16:46:07;;;;;;;;;;;;;;;;;;5075521;28;28424;-84
2022/05/14 16:48:32;;;;;;;;;;;;;;;;;;5075820;28;28396;-84
2022/05/14 16:50:57;;;;;;;;;;;;;;;;;;5075674;28;28447;-84
2022/05/14 16:53:22;;;;;;;;;;;;;;;;;;5075429;28;29540;-84
2022/05/14 16:55:47;;;;;;;;;;;;;;;;;;5075457;28;28479;-84
2022/05/14 16:58:12;;;;;;;;;;;;;;;;;;5075454;28;28329;-85
2022/05/14 17:00:37;;;;;;;;;;;;;;;;;;5057010;28;35829;-85